sensor_id;sensor_type;location;lat;lon;timestamp;temperature;humidity
16128;DHT22;8168;49.036;7.690;2022-12-10T00:03:17;2.70;99.90
16128;DHT22;8168;49.036;7.690;2022-12-10T00:08:18;2.70;99.90
16128;DHT22;8168;49.036;7.690;2022-12-10T00:10:49;2.70;99.90
16128;DHT22;8168;49.036;7.690;2022-12-10T00:15:51;2.70;99.90
16128;DHT22;8168;49.036;7.690;2022-12-10T00:18:21;2.70;99.90
16128;DHT22;8168;49.036;7.690;2022-12-10T00:20:52;2.80;99.90
16128;DHT22;8168;49.036;7.690;2022-12-10T00:23:23;2.80;99.90
16128;DHT22;8168;49.036;7.690;2022-12-10T00:25:54;2.70;99.90
16128;DHT22;8168;49.036;7.690;2022-12-10T00:28:24;2.80;99.90
16128;DHT22;8168;49.036;7.690;2022-12-10T00:33:26;2.80;99.90
16128;DHT22;8168;49.036;7.690;2022-12-10T00:36:02;2.80;99.90
16128;DHT22;8168;49.036;7.690;2022-12-10T00:38:33;2.80;99.90
16128;DHT22;8168;49.036;7.690;2022-12-10T00:41:04;2.80;99.90
16128;DHT22;8168;49.036;7.690;2022-12-10T00:43:35;2.80;99.90
16128;DHT22;8168;49.036;7.690;2022-12-10T00:46:05;2.90;99.90
16128;DHT22;8168;49.036;7.690;2022-12-10T00:48:36;2.90;99.90
16128;DHT22;8168;49.036;7.690;2022-12-10T00:51:12;2.80;99.90
16128;DHT22;8168;49.036;7.690;2022-12-10T00:53:45;2.80;99.90
16128;DHT22;8168;49.036;7.690;2022-12-10T00:56:20;2.70;99.90
16128;DHT22;8168;49.036;7.690;2022-12-10T00:58:51;2.80;99.90
16128;DHT22;8168;49.036;7.690;2022-12-10T01:01:24;2.80;99.90
16128;DHT22;8168;49.036;7.690;2022-12-10T01:03:57;2.80;99.90
16128;DHT22;8168;49.036;7.690;2022-12-10T01:06:34;2.80;99.90
16128;DHT22;8168;49.036;7.690;2022-12-10T01:09:07;2.70;99.90
16128;DHT22;8168;49.036;7.690;2022-12-10T01:11:41;2.70;99.90
16128;DHT22;8168;49.036;7.690;2022-12-10T01:14:16;2.70;99.90
16128;DHT22;8168;49.036;7.690;2022-12-10T01:16:48;2.70;99.90
16128;DHT22;8168;49.036;7.690;2022-12-10T01:19:19;2.70;99.90
16128;DHT22;8168;49.036;7.690;2022-12-10T01:21:51;2.70;99.90
16128;DHT22;8168;49.036;7.690;2022-12-10T01:24:23;2.70;99.90
16128;DHT22;8168;49.036;7.690;2022-12-10T01:26:55;2.70;99.90
16128;DHT22;8168;49.036;7.690;2022-12-10T01:29:25;2.70;99.90
16128;DHT22;8168;49.036;7.690;2022-12-10T01:31:58;2.70;99.90
16128;DHT22;8168;49.036;7.690;2022-12-10T01:34:29;2.70;99.90
16128;DHT22;8168;49.036;7.690;2022-12-10T01:36:59;2.70;99.90
16128;DHT22;8168;49.036;7.690;2022-12-10T01:39:30;2.70;99.90
16128;DHT22;8168;49.036;7.690;2022-12-10T01:42:01;2.70;99.90
16128;DHT22;8168;49.036;7.690;2022-12-10T01:47:02;2.70;99.90
16128;DHT22;8168;49.036;7.690;2022-12-10T01:49:35;2.70;99.90
16128;DHT22;8168;49.036;7.690;2022-12-10T01:52:09;2.70;99.90
16128;DHT22;8168;49.036;7.690;2022-12-10T01:54:43;2.70;99.90
16128;DHT22;8168;49.036;7.690;2022-12-10T01:57:18;2.70;99.90
16128;DHT22;8168;49.036;7.690;2022-12-10T01:59:58;2.70;99.90
16128;DHT22;8168;49.036;7.690;2022-12-10T02:02:46;2.70;99.90
16128;DHT22;8168;49.036;7.690;2022-12-10T02:05:28;2.70;99.90
16128;DHT22;8168;49.036;7.690;2022-12-10T02:09:11;2.60;99.90
16128;DHT22;8168;49.036;7.690;2022-12-10T02:11:20;2.60;99.90
16128;DHT22;8168;49.036;7.690;2022-12-10T02:16:38;2.50;99.90
16128;DHT22;8168;49.036;7.690;2022-12-10T02:21:46;2.50;99.90
16128;DHT22;8168;49.036;7.690;2022-12-10T02:24:23;2.50;99.90
16128;DHT22;8168;49.036;7.690;2022-12-10T02:29:33;2.30;99.90
16128;DHT22;8168;49.036;7.690;2022-12-10T02:32:13;2.30;99.90
16128;DHT22;8168;49.036;7.690;2022-12-10T02:34:48;2.20;99.90
16128;DHT22;8168;49.036;7.690;2022-12-10T02:37:42;2.20;99.90
16128;DHT22;8168;49.036;7.690;2022-12-10T02:40:31;2.20;99.90
16128;DHT22;8168;49.036;7.690;2022-12-10T02:43:03;2.30;99.90
16128;DHT22;8168;49.036;7.690;2022-12-10T02:45:35;2.30;99.90
16128;DHT22;8168;49.036;7.690;2022-12-10T02:59:01;2.30;99.90
16128;DHT22;8168;49.036;7.690;2022-12-10T03:02:18;2.30;99.90
16128;DHT22;8168;49.036;7.690;2022-12-10T03:05:06;2.30;99.90
16128;DHT22;8168;49.036;7.690;2022-12-10T03:07:44;2.30;99.90
16128;DHT22;8168;49.036;7.690;2022-12-10T03:13:13;2.30;99.90
16128;DHT22;8168;49.036;7.690;2022-12-10T03:15:45;2.30;99.90
16128;DHT22;8168;49.036;7.690;2022-12-10T03:18:20;2.40;99.90
16128;DHT22;8168;49.036;7.690;2022-12-10T03:20:55;2.40;99.90
16128;DHT22;8168;49.036;7.690;2022-12-10T03:23:29;2.40;99.90
16128;DHT22;8168;49.036;7.690;2022-12-10T03:26:00;2.40;99.90
16128;DHT22;8168;49.036;7.690;2022-12-10T03:28:38;2.40;99.90
16128;DHT22;8168;49.036;7.690;2022-12-10T03:31:13;2.40;99.90
16128;DHT22;8168;49.036;7.690;2022-12-10T03:33:45;2.40;99.90
16128;DHT22;8168;49.036;7.690;2022-12-10T03:36:18;2.40;99.90
16128;DHT22;8168;49.036;7.690;2022-12-10T03:38:49;2.40;99.90
16128;DHT22;8168;49.036;7.690;2022-12-10T03:41:20;2.40;99.90
16128;DHT22;8168;49.036;7.690;2022-12-10T03:43:57;2.40;99.90
16128;DHT22;8168;49.036;7.690;2022-12-10T03:46:29;2.40;99.90
16128;DHT22;8168;49.036;7.690;2022-12-10T03:49:01;2.40;99.90
16128;DHT22;8168;49.036;7.690;2022-12-10T04:04:07;2.20;99.90
16128;DHT22;8168;49.036;7.690;2022-12-10T04:06:39;2.20;99.90
16128;DHT22;8168;49.036;7.690;2022-12-10T04:09:11;2.10;99.90
16128;DHT22;8168;49.036;7.690;2022-12-10T04:11:43;2.20;99.90
16128;DHT22;8168;49.036;7.690;2022-12-10T04:19:35;2.10;99.90
16128;DHT22;8168;49.036;7.690;2022-12-10T04:30:16;2.10;99.90
16128;DHT22;8168;49.036;7.690;2022-12-10T04:32:47;2.10;99.90
16128;DHT22;8168;49.036;7.690;2022-12-10T04:35:17;2.10;99.90
16128;DHT22;8168;49.036;7.690;2022-12-10T04:40:19;2.00;99.90
16128;DHT22;8168;49.036;7.690;2022-12-10T04:45:20;2.10;99.90
16128;DHT22;8168;49.036;7.690;2022-12-10T04:47:51;2.10;99.90
16128;DHT22;8168;49.036;7.690;2022-12-10T05:02:57;2.10;99.90
16128;DHT22;8168;49.036;7.690;2022-12-10T05:05:27;2.10;99.90
16128;DHT22;8168;49.036;7.690;2022-12-10T05:10:29;2.20;99.90
16128;DHT22;8168;49.036;7.690;2022-12-10T05:26:18;2.20;99.90
16128;DHT22;8168;49.036;7.690;2022-12-10T05:28:51;2.20;99.90
16128;DHT22;8168;49.036;7.690;2022-12-10T05:31:26;2.10;99.90
16128;DHT22;8168;49.036;7.690;2022-12-10T05:33:58;2.10;99.90
16128;DHT22;8168;49.036;7.690;2022-12-10T05:36:30;2.00;99.90
16128;DHT22;8168;49.036;7.690;2022-12-10T05:39:01;1.90;99.90
16128;DHT22;8168;49.036;7.690;2022-12-10T05:41:35;1.90;99.90
16128;DHT22;8168;49.036;7.690;2022-12-10T05:46:38;1.90;99.90
16128;DHT22;8168;49.036;7.690;2022-12-10T06:09:18;2.00;99.90
16128;DHT22;8168;49.036;7.690;2022-12-10T06:36:59;2.10;99.90
16128;DHT22;8168;49.036;7.690;2022-12-10T07:02:10;2.10;99.90
16128;DHT22;8168;49.036;7.690;2022-12-10T07:04:41;2.10;99.90
16128;DHT22;8168;49.036;7.690;2022-12-10T07:07:12;2.20;99.90
16128;DHT22;8168;49.036;7.690;2022-12-10T07:24:49;2.10;99.90
16128;DHT22;8168;49.036;7.690;2022-12-10T07:27:20;2.10;99.90
16128;DHT22;8168;49.036;7.690;2022-12-10T07:42:26;2.20;99.90
16128;DHT22;8168;49.036;7.690;2022-12-10T08:00:03;2.20;99.90
16128;DHT22;8168;49.036;7.690;2022-12-10T08:02:35;2.40;99.90
16128;DHT22;8168;49.036;7.690;2022-12-10T08:05:05;2.20;99.90
16128;DHT22;8168;49.036;7.690;2022-12-10T08:07:36;2.10;99.90
16128;DHT22;8168;49.036;7.690;2022-12-10T08:15:09;2.10;99.90
16128;DHT22;8168;49.036;7.690;2022-12-10T08:42:51;2.20;99.90
16128;DHT22;8168;49.036;7.690;2022-12-10T08:57:58;2.20;99.90
16128;DHT22;8168;49.036;7.690;2022-12-10T09:02:59;2.20;99.90
16128;DHT22;8168;49.036;7.690;2022-12-10T09:20:36;2.30;99.90
16128;DHT22;8168;49.036;7.690;2022-12-10T09:23:07;2.30;99.90
16128;DHT22;8168;49.036;7.690;2022-12-10T09:25:38;2.20;99.90
16128;DHT22;8168;49.036;7.690;2022-12-10T09:40:56;2.20;99.90
16128;DHT22;8168;49.036;7.690;2022-12-10T09:54:31;2.40;99.90
16128;DHT22;8168;49.036;7.690;2022-12-10T09:57:05;2.40;99.90
16128;DHT22;8168;49.036;7.690;2022-12-10T09:59:44;2.40;99.90
16128;DHT22;8168;49.036;7.690;2022-12-10T10:02:25;2.40;99.90
16128;DHT22;8168;49.036;7.690;2022-12-10T10:05:11;2.40;99.90
16128;DHT22;8168;49.036;7.690;2022-12-10T10:07:55;2.50;99.90
16128;DHT22;8168;49.036;7.690;2022-12-10T10:10:38;2.40;99.90
16128;DHT22;8168;49.036;7.690;2022-12-10T10:13:33;2.50;99.90
16128;DHT22;8168;49.036;7.690;2022-12-10T10:16:20;2.50;99.90
16128;DHT22;8168;49.036;7.690;2022-12-10T10:19:04;2.50;99.90
16128;DHT22;8168;49.036;7.690;2022-12-10T10:21:40;2.50;99.90
16128;DHT22;8168;49.036;7.690;2022-12-10T10:24:15;2.50;99.90
16128;DHT22;8168;49.036;7.690;2022-12-10T10:26:47;2.60;99.90
16128;DHT22;8168;49.036;7.690;2022-12-10T10:29:20;2.60;99.90
16128;DHT22;8168;49.036;7.690;2022-12-10T10:32:25;2.60;99.90
16128;DHT22;8168;49.036;7.690;2022-12-10T10:34:58;2.60;99.90
16128;DHT22;8168;49.036;7.690;2022-12-10T10:37:39;2.70;99.90
16128;DHT22;8168;49.036;7.690;2022-12-10T10:40:26;2.60;99.90
16128;DHT22;8168;49.036;7.690;2022-12-10T10:42:59;2.60;99.90
16128;DHT22;8168;49.036;7.690;2022-12-10T10:48:22;2.50;99.90
16128;DHT22;8168;49.036;7.690;2022-12-10T10:50:54;2.50;99.90
16128;DHT22;8168;49.036;7.690;2022-12-10T10:56:22;2.60;99.90
16128;DHT22;8168;49.036;7.690;2022-12-10T11:01:26;2.60;99.90
16128;DHT22;8168;49.036;7.690;2022-12-10T11:04:14;2.60;99.90
16128;DHT22;8168;49.036;7.690;2022-12-10T11:06:45;2.70;99.90
16128;DHT22;8168;49.036;7.690;2022-12-10T11:09:20;2.60;99.90
16128;DHT22;8168;49.036;7.690;2022-12-10T11:11:59;2.70;99.90
16128;DHT22;8168;49.036;7.690;2022-12-10T11:14:33;2.70;99.90
16128;DHT22;8168;49.036;7.690;2022-12-10T11:19:53;2.70;99.90
16128;DHT22;8168;49.036;7.690;2022-12-10T11:22:30;2.70;99.90
16128;DHT22;8168;49.036;7.690;2022-12-10T11:25:01;2.80;99.90
16128;DHT22;8168;49.036;7.690;2022-12-10T11:30:22;2.80;99.90
16128;DHT22;8168;49.036;7.690;2022-12-10T11:38:32;2.70;99.90
16128;DHT22;8168;49.036;7.690;2022-12-10T11:41:29;2.80;99.90
16128;DHT22;8168;49.036;7.690;2022-12-10T11:44:22;2.80;99.90
16128;DHT22;8168;49.036;7.690;2022-12-10T11:47:04;2.80;99.90
16128;DHT22;8168;49.036;7.690;2022-12-10T12:13:20;2.90;99.90
16128;DHT22;8168;49.036;7.690;2022-12-10T12:16:05;3.00;99.90
16128;DHT22;8168;49.036;7.690;2022-12-10T12:21:21;3.00;99.90
16128;DHT22;8168;49.036;7.690;2022-12-10T12:24:04;3.00;99.90
16128;DHT22;8168;49.036;7.690;2022-12-10T12:26:57;3.10;99.90
16128;DHT22;8168;49.036;7.690;2022-12-10T12:29:41;3.10;99.90
16128;DHT22;8168;49.036;7.690;2022-12-10T12:32:25;3.00;99.90
16128;DHT22;8168;49.036;7.690;2022-12-10T12:35:14;3.00;99.90
16128;DHT22;8168;49.036;7.690;2022-12-10T12:38:01;3.00;99.90
16128;DHT22;8168;49.036;7.690;2022-12-10T12:40:39;3.00;99.90
16128;DHT22;8168;49.036;7.690;2022-12-10T12:46:26;3.00;99.90
16128;DHT22;8168;49.036;7.690;2022-12-10T12:49:01;2.90;99.90
16128;DHT22;8168;49.036;7.690;2022-12-10T12:51:37;2.90;99.90
16128;DHT22;8168;49.036;7.690;2022-12-10T12:54:11;2.90;99.90
16128;DHT22;8168;49.036;7.690;2022-12-10T12:59:57;3.00;99.90
16128;DHT22;8168;49.036;7.690;2022-12-10T13:05:33;3.00;99.90
16128;DHT22;8168;49.036;7.690;2022-12-10T13:22:10;2.80;99.90
16128;DHT22;8168;49.036;7.690;2022-12-10T13:27:19;2.70;99.90
16128;DHT22;8168;49.036;7.690;2022-12-10T13:30:47;2.70;99.90
16128;DHT22;8168;49.036;7.690;2022-12-10T13:33:05;2.60;99.90
16128;DHT22;8168;49.036;7.690;2022-12-10T13:36:09;2.60;99.90
16128;DHT22;8168;49.036;7.690;2022-12-10T13:38:57;2.60;99.90
16128;DHT22;8168;49.036;7.690;2022-12-10T13:41:41;2.60;99.90
16128;DHT22;8168;49.036;7.690;2022-12-10T13:44:48;2.60;99.90
16128;DHT22;8168;49.036;7.690;2022-12-10T13:56:12;2.60;99.90
16128;DHT22;8168;49.036;7.690;2022-12-10T14:08:02;2.60;99.90
16128;DHT22;8168;49.036;7.690;2022-12-10T14:10:35;2.60;99.90
16128;DHT22;8168;49.036;7.690;2022-12-10T14:13:07;2.60;99.90
16128;DHT22;8168;49.036;7.690;2022-12-10T14:15:41;2.60;99.90
16128;DHT22;8168;49.036;7.690;2022-12-10T14:20:51;2.60;99.90
16128;DHT22;8168;49.036;7.690;2022-12-10T14:23:24;2.60;99.90
16128;DHT22;8168;49.036;7.690;2022-12-10T14:26:11;2.60;99.90
16128;DHT22;8168;49.036;7.690;2022-12-10T14:28:44;2.50;99.90
16128;DHT22;8168;49.036;7.690;2022-12-10T14:31:21;2.40;99.90
16128;DHT22;8168;49.036;7.690;2022-12-10T14:33:59;2.30;99.90
16128;DHT22;8168;49.036;7.690;2022-12-10T14:36:55;2.30;99.90
16128;DHT22;8168;49.036;7.690;2022-12-10T14:39:27;2.30;99.90
16128;DHT22;8168;49.036;7.690;2022-12-10T14:42:03;2.40;99.90
16128;DHT22;8168;49.036;7.690;2022-12-10T14:44:37;2.40;99.90
16128;DHT22;8168;49.036;7.690;2022-12-10T14:47:18;2.50;99.90
16128;DHT22;8168;49.036;7.690;2022-12-10T14:49:51;2.40;99.90
16128;DHT22;8168;49.036;7.690;2022-12-10T14:52:25;2.40;99.90
16128;DHT22;8168;49.036;7.690;2022-12-10T14:55:02;2.50;99.90
16128;DHT22;8168;49.036;7.690;2022-12-10T14:57:39;2.40;99.90
16128;DHT22;8168;49.036;7.690;2022-12-10T15:00:19;2.50;99.90
16128;DHT22;8168;49.036;7.690;2022-12-10T15:03:10;2.40;99.90
16128;DHT22;8168;49.036;7.690;2022-12-10T15:08:17;2.40;99.90
16128;DHT22;8168;49.036;7.690;2022-12-10T15:10:53;2.40;99.90
16128;DHT22;8168;49.036;7.690;2022-12-10T15:13:33;2.30;99.90
16128;DHT22;8168;49.036;7.690;2022-12-10T15:16:05;2.30;99.90
16128;DHT22;8168;49.036;7.690;2022-12-10T15:18:37;2.20;99.90
16128;DHT22;8168;49.036;7.690;2022-12-10T15:21:12;2.30;99.90
16128;DHT22;8168;49.036;7.690;2022-12-10T15:23:47;2.20;99.90
16128;DHT22;8168;49.036;7.690;2022-12-10T15:26:32;2.20;99.90
16128;DHT22;8168;49.036;7.690;2022-12-10T15:29:30;2.10;99.90
16128;DHT22;8168;49.036;7.690;2022-12-10T15:32:10;2.00;99.90
16128;DHT22;8168;49.036;7.690;2022-12-10T15:34:52;1.90;99.90
16128;DHT22;8168;49.036;7.690;2022-12-10T15:37:43;1.90;99.90
16128;DHT22;8168;49.036;7.690;2022-12-10T15:40:28;1.80;99.90
16128;DHT22;8168;49.036;7.690;2022-12-10T15:43:27;1.70;99.90
16128;DHT22;8168;49.036;7.690;2022-12-10T15:45:59;1.70;99.90
16128;DHT22;8168;49.036;7.690;2022-12-10T15:53:37;1.60;99.90
16128;DHT22;8168;49.036;7.690;2022-12-10T15:58:39;1.60;99.90
16128;DHT22;8168;49.036;7.690;2022-12-10T16:01:13;1.60;99.90
16128;DHT22;8168;49.036;7.690;2022-12-10T16:08:46;1.50;99.90
16128;DHT22;8168;49.036;7.690;2022-12-10T16:11:18;1.50;99.90
16128;DHT22;8168;49.036;7.690;2022-12-10T16:13:53;1.50;99.90
16128;DHT22;8168;49.036;7.690;2022-12-10T16:16:24;1.50;99.90
16128;DHT22;8168;49.036;7.690;2022-12-10T16:21:26;1.40;99.90
16128;DHT22;8168;49.036;7.690;2022-12-10T16:41:35;1.20;99.90
16128;DHT22;8168;49.036;7.690;2022-12-10T16:54:12;1.10;99.90
16128;DHT22;8168;49.036;7.690;2022-12-10T16:56:44;1.00;99.90
16128;DHT22;8168;49.036;7.690;2022-12-10T16:59:16;1.00;99.90
16128;DHT22;8168;49.036;7.690;2022-12-10T17:14:29;0.80;99.90
16128;DHT22;8168;49.036;7.690;2022-12-10T17:17:01;0.80;99.90
16128;DHT22;8168;49.036;7.690;2022-12-10T17:19:36;0.70;99.90
16128;DHT22;8168;49.036;7.690;2022-12-10T17:22:09;0.70;99.90
16128;DHT22;8168;49.036;7.690;2022-12-10T17:24:39;0.70;99.90
16128;DHT22;8168;49.036;7.690;2022-12-10T17:27:15;0.60;99.90
16128;DHT22;8168;49.036;7.690;2022-12-10T17:32:25;0.60;99.90
16128;DHT22;8168;49.036;7.690;2022-12-10T17:34:56;0.50;99.90
16128;DHT22;8168;49.036;7.690;2022-12-10T17:37:28;0.60;99.90
16128;DHT22;8168;49.036;7.690;2022-12-10T17:40:01;0.50;99.90
16128;DHT22;8168;49.036;7.690;2022-12-10T17:42:31;0.50;99.90
16128;DHT22;8168;49.036;7.690;2022-12-10T17:52:45;0.40;99.90
16128;DHT22;8168;49.036;7.690;2022-12-10T17:57:46;0.40;99.90
16128;DHT22;8168;49.036;7.690;2022-12-10T18:00:20;0.40;99.90
16128;DHT22;8168;49.036;7.690;2022-12-10T18:10:26;0.40;99.90
16128;DHT22;8168;49.036;7.690;2022-12-10T18:12:58;0.30;99.90
16128;DHT22;8168;49.036;7.690;2022-12-10T18:15:29;0.30;99.90
16128;DHT22;8168;49.036;7.690;2022-12-10T18:20:35;0.20;99.90
16128;DHT22;8168;49.036;7.690;2022-12-10T18:23:09;0.20;99.90
16128;DHT22;8168;49.036;7.690;2022-12-10T18:25:43;0.10;99.90
16128;DHT22;8168;49.036;7.690;2022-12-10T18:30:51;0.10;99.90
16128;DHT22;8168;49.036;7.690;2022-12-10T18:33:25;0.10;99.90
16128;DHT22;8168;49.036;7.690;2022-12-10T18:56:09;0.00;99.90
16128;DHT22;8168;49.036;7.690;2022-12-10T18:58:41;0.00;99.90
16128;DHT22;8168;49.036;7.690;2022-12-10T19:01:14;0.00;99.90
16128;DHT22;8168;49.036;7.690;2022-12-10T19:03:44;-0.10;99.90
16128;DHT22;8168;49.036;7.690;2022-12-10T19:06:21;-0.10;99.90
16128;DHT22;8168;49.036;7.690;2022-12-10T19:08:54;-0.20;99.90
16128;DHT22;8168;49.036;7.690;2022-12-10T19:11:25;-0.20;99.90
16128;DHT22;8168;49.036;7.690;2022-12-10T19:24:07;-0.30;99.90
16128;DHT22;8168;49.036;7.690;2022-12-10T19:26:39;-0.40;99.90
16128;DHT22;8168;49.036;7.690;2022-12-10T19:29:19;-0.40;99.90
16128;DHT22;8168;49.036;7.690;2022-12-10T19:31:50;-0.40;99.90
16128;DHT22;8168;49.036;7.690;2022-12-10T19:39:24;-0.40;99.90
16128;DHT22;8168;49.036;7.690;2022-12-10T19:41:55;-0.50;99.90
16128;DHT22;8168;49.036;7.690;2022-12-10T19:44:25;-0.60;99.90
16128;DHT22;8168;49.036;7.690;2022-12-10T19:57:00;-0.60;99.90
16128;DHT22;8168;49.036;7.690;2022-12-10T20:17:09;-0.90;99.90
16128;DHT22;8168;49.036;7.690;2022-12-10T20:19:43;-0.90;99.90
16128;DHT22;8168;49.036;7.690;2022-12-10T20:24:46;-1.00;99.90
16128;DHT22;8168;49.036;7.690;2022-12-10T20:27:17;-1.00;99.90
16128;DHT22;8168;49.036;7.690;2022-12-10T20:32:18;-1.00;99.90
16128;DHT22;8168;49.036;7.690;2022-12-10T21:10:04;-1.40;99.90
16128;DHT22;8168;49.036;7.690;2022-12-10T21:12:35;-1.40;99.90
16128;DHT22;8168;49.036;7.690;2022-12-10T21:15:06;-1.50;99.90
16128;DHT22;8168;49.036;7.690;2022-12-10T21:17:36;-1.50;99.90
16128;DHT22;8168;49.036;7.690;2022-12-10T21:20:09;-1.50;99.90
16128;DHT22;8168;49.036;7.690;2022-12-10T21:22:41;-1.60;99.90
16128;DHT22;8168;49.036;7.690;2022-12-10T21:25:12;-1.60;99.90
16128;DHT22;8168;49.036;7.690;2022-12-10T21:27:42;-1.60;99.90
16128;DHT22;8168;49.036;7.690;2022-12-10T21:48:11;-1.80;99.90
16128;DHT22;8168;49.036;7.690;2022-12-10T21:50:43;-1.80;99.90
16128;DHT22;8168;49.036;7.690;2022-12-10T21:53:14;-1.80;99.90
16128;DHT22;8168;49.036;7.690;2022-12-10T22:00:56;-1.90;99.90
16128;DHT22;8168;49.036;7.690;2022-12-10T22:21:04;-2.10;99.90
16128;DHT22;8168;49.036;7.690;2022-12-10T22:26:07;-2.20;99.90
16128;DHT22;8168;49.036;7.690;2022-12-10T22:41:14;-2.30;99.90
16128;DHT22;8168;49.036;7.690;2022-12-10T22:48:48;-2.30;99.90
16128;DHT22;8168;49.036;7.690;2022-12-10T22:51:19;-2.40;99.90
16128;DHT22;8168;49.036;7.690;2022-12-10T22:58:52;-2.40;99.90
16128;DHT22;8168;49.036;7.690;2022-12-10T23:01:24;-2.40;99.90
16128;DHT22;8168;49.036;7.690;2022-12-10T23:24:04;-2.40;99.90
16128;DHT22;8168;49.036;7.690;2022-12-10T23:34:08;-2.30;99.90
16128;DHT22;8168;49.036;7.690;2022-12-10T23:56:46;-2.10;99.90
16128;DHT22;8168;49.036;7.690;2022-12-10T23:59:16;-2.00;99.90
